Time;durP1;ratioP1;P1;durP2;ratioP2;P2;SDS_P1;SDS_P2;PMS_P1;PMS_P2;Temp;Humidity;BMP_temperature;BMP_pressure;BME280_temperature;BME280_humidity;BME280_pressure;Samples;Min_cycle;Max_cycle;Signal;HPM_P1;HPM_P2
2022/10/24 00:00:42;;;;;;;14.27;9.20;;;15.70;99.90;;;;;;5116861;27;20203;-75
2022/10/24 00:03:08;;;;;;;16.83;10.47;;;15.70;99.90;;;;;;5135312;27;20202;-75
2022/10/24 00:05:34;;;;;;;14.50;10.30;;;15.70;99.90;;;;;;5135279;27;20518;-75
2022/10/24 00:08:00;;;;;;;13.57;10.27;;;15.70;99.90;;;;;;5135247;27;20431;-75
2022/10/24 00:10:25;;;;;;;14.73;9.83;;;15.70;99.90;;;;;;5135415;27;20561;-75
2022/10/24 00:12:53;;;;;;;15.77;9.50;;;15.70;99.90;;;;;;5135267;27;20194;-75
2022/10/24 00:15:19;;;;;;;15.33;10.70;;;15.70;99.90;;;;;;5135500;27;20199;-75
2022/10/24 00:17:45;;;;;;;14.73;9.87;;;15.70;99.90;;;;;;5134278;27;20440;-73
2022/10/24 00:20:11;;;;;;;12.17;9.63;;;15.80;99.90;;;;;;5135400;27;20651;-75
2022/10/24 00:22:37;;;;;;;15.50;10.10;;;15.80;99.90;;;;;;5116637;27;20191;-75
2022/10/24 00:25:03;;;;;;;13.00;9.10;;;15.80;99.90;;;;;;5134941;27;21024;-75
2022/10/24 00:27:29;;;;;;;17.90;12.57;;;15.80;99.90;;;;;;5116495;27;20239;-75
2022/10/24 00:29:54;;;;;;;16.20;10.90;;;15.80;99.90;;;;;;5135213;27;20435;-75
2022/10/24 00:32:20;;;;;;;15.23;10.43;;;15.80;99.90;;;;;;5134945;27;20685;-75
2022/10/24 00:34:46;;;;;;;15.20;10.27;;;15.80;99.90;;;;;;5116630;27;20234;-75
2022/10/24 00:37:11;;;;;;;12.87;9.80;;;15.90;99.90;;;;;;5116446;27;20174;-74
2022/10/24 00:39:37;;;;;;;15.23;10.50;;;15.90;99.90;;;;;;5135086;27;20195;-75
2022/10/24 00:42:03;;;;;;;14.73;10.10;;;15.90;99.90;;;;;;5134684;27;20306;-75
2022/10/24 00:44:31;;;;;;;14.20;10.60;;;15.90;99.90;;;;;;5135080;27;20206;-76
2022/10/24 00:47:03;;;;;;;14.70;10.83;;;15.90;99.90;;;;;;5116256;27;20415;-76
2022/10/24 00:49:36;;;;;;;16.10;11.87;;;15.90;99.90;;;;;;5134900;28;20523;-75
2022/10/24 00:52:06;;;;;;;18.07;11.60;;;15.90;99.90;;;;;;5134732;28;20423;-75
2022/10/24 00:54:32;;;;;;;16.30;11.53;;;15.80;99.90;;;;;;5134544;28;21065;-75
2022/10/24 00:57:04;;;;;;;14.83;10.40;;;15.80;99.90;;;;;;5116256;28;20415;-74
2022/10/24 00:59:33;;;;;;;14.67;11.30;;;15.70;99.90;;;;;;5134871;28;20927;-75
2022/10/24 01:01:59;;;;;;;16.03;11.07;;;15.70;99.90;;;;;;5116077;28;20454;-74
2022/10/24 01:04:24;;;;;;;16.30;11.33;;;15.70;99.90;;;;;;5134464;28;20490;-75
2022/10/24 01:07:17;;;;;;;22.43;11.97;;;15.60;99.90;;;;;;5134512;28;20188;-75
2022/10/24 01:09:43;;;;;;;16.67;11.70;;;15.60;99.90;;;;;;5134927;28;20274;-75
2022/10/24 01:12:15;;;;;;;17.30;10.60;;;15.60;99.90;;;;;;5134455;28;20955;-75
2022/10/24 01:14:54;;;;;;;18.50;10.97;;;15.50;99.90;;;;;;5134397;28;20458;-75
2022/10/24 01:17:34;;;;;;;17.37;10.83;;;15.50;99.90;;;;;;5116018;28;20803;-75
2022/10/24 01:20:21;;;;;;;13.90;10.53;;;15.50;99.90;;;;;;5134750;28;20438;-75
2022/10/24 01:22:58;;;;;;;17.33;12.37;;;15.50;99.90;;;;;;5134518;28;20442;-75
2022/10/24 01:25:56;;;;;;;17.90;11.13;;;15.40;99.90;;;;;;5115871;28;20474;-75
2022/10/24 01:28:30;;;;;;;25.73;12.33;;;15.40;99.90;;;;;;5083905;27;20447;-75
2022/10/24 01:31:29;;;;;;;16.40;11.40;;;15.40;99.90;;;;;;5138374;27;20501;-75
2022/10/24 01:34:02;;;;;;;18.50;11.80;;;15.30;99.90;;;;;;5137300;27;20434;-75
2022/10/24 01:36:41;;;;;;;17.50;11.70;;;15.30;99.90;;;;;;5138265;27;20419;-75
2022/10/24 01:39:13;;;;;;;18.20;12.17;;;15.30;99.90;;;;;;5138260;27;20768;-74
2022/10/24 01:41:41;;;;;;;19.43;12.80;;;15.40;99.90;;;;;;5138236;27;20450;-75
2022/10/24 01:44:23;;;;;;;16.00;11.60;;;15.40;99.90;;;;;;5138185;27;20475;-75
2022/10/24 01:47:00;;;;;;;20.07;14.00;;;15.40;99.90;;;;;;5119990;27;20444;-75
2022/10/24 01:49:31;;;;;;;20.57;13.17;;;15.40;99.90;;;;;;5138252;27;20934;-75
2022/10/24 01:52:01;;;;;;;16.40;12.43;;;15.40;99.90;;;;;;5138015;27;20442;-74
2022/10/24 01:54:28;;;;;;;17.90;12.93;;;15.40;99.90;;;;;;5119482;27;20458;-74
2022/10/24 01:56:53;;;;;;;18.57;12.63;;;15.40;99.90;;;;;;5119414;27;20821;-75
2022/10/24 01:59:28;;;;;;;18.90;13.13;;;15.40;99.90;;;;;;5119469;27;20501;-75
2022/10/24 02:02:12;;;;;;;18.87;13.83;;;15.40;99.90;;;;;;5119270;27;20285;-74
2022/10/24 02:04:44;;;;;;;17.47;13.40;;;15.30;99.90;;;;;;5137591;27;21074;-75
2022/10/24 02:07:12;;;;;;;25.63;15.03;;;15.30;99.90;;;;;;5119288;27;20512;-75
2022/10/24 02:09:40;;;;;;;19.70;13.40;;;15.30;99.90;;;;;;5119151;27;20528;-75
2022/10/24 02:12:09;;;;;;;18.40;12.93;;;15.20;99.90;;;;;;5137562;27;20921;-74
2022/10/24 02:14:46;;;;;;;20.60;14.07;;;15.20;99.90;;;;;;5137797;27;20435;-75
2022/10/24 02:17:12;;;;;;;18.80;13.57;;;15.20;99.90;;;;;;5119032;27;20403;-74
2022/10/24 02:19:37;;;;;;;19.63;13.27;;;15.10;99.90;;;;;;5118809;27;20477;-75
2022/10/24 02:22:18;;;;;;;18.93;13.97;;;15.10;99.90;;;;;;5137271;27;20250;-74
2022/10/24 02:24:59;;;;;;;20.10;13.13;;;15.10;99.90;;;;;;5137039;27;20234;-75
2022/10/24 02:27:36;;;;;;;21.87;13.47;;;15.10;99.90;;;;;;5137381;27;20887;-75
2022/10/24 02:30:04;;;;;;;22.80;14.20;;;15.10;99.90;;;;;;5137728;27;20438;-75
2022/10/24 02:32:37;;;;;;;21.27;14.83;;;15.10;99.90;;;;;;5137212;27;20399;-74
2022/10/24 02:35:05;;;;;;;18.40;13.70;;;15.10;99.90;;;;;;5137537;27;20996;-75
2022/10/24 02:37:35;;;;;;;17.60;13.40;;;15.10;99.90;;;;;;5118663;27;20451;-75
2022/10/24 02:40:04;;;;;;;25.67;15.67;;;15.10;99.90;;;;;;5136496;27;20525;-75
2022/10/24 02:42:31;;;;;;;21.00;14.67;;;15.00;99.90;;;;;;5118520;27;20451;-75
2022/10/24 02:44:57;;;;;;;22.50;14.37;;;15.00;99.90;;;;;;5118660;27;20447;-75
2022/10/24 02:47:25;;;;;;;23.63;15.83;;;15.00;99.90;;;;;;5136991;27;20411;-75
2022/10/24 02:49:52;;;;;;;24.93;15.67;;;15.00;99.90;;;;;;5118215;27;20492;-75
2022/10/24 02:52:18;;;;;;;22.97;15.70;;;15.00;99.90;;;;;;5136797;27;20422;-75
2022/10/24 02:54:43;;;;;;;25.33;15.93;;;15.00;99.90;;;;;;5136646;27;20493;-75
2022/10/24 02:57:09;;;;;;;24.63;16.17;;;15.00;99.90;;;;;;5136603;27;20395;-75
2022/10/24 02:59:35;;;;;;;23.77;15.80;;;14.90;99.90;;;;;;5136919;27;20707;-75
2022/10/24 03:02:01;;;;;;;22.17;14.70;;;14.90;99.90;;;;;;5136530;27;20462;-75
2022/10/24 03:04:26;;;;;;;23.70;16.37;;;14.90;99.90;;;;;;5136756;27;20206;-75
2022/10/24 03:06:52;;;;;;;27.30;17.60;;;14.90;99.90;;;;;;5136484;27;20174;-75
2022/10/24 03:09:18;;;;;;;30.70;16.27;;;14.90;99.90;;;;;;5117884;27;20709;-75
2022/10/24 03:11:44;;;;;;;24.33;15.43;;;14.90;99.90;;;;;;5118025;27;20403;-74
2022/10/24 03:14:09;;;;;;;26.63;17.47;;;14.90;99.90;;;;;;5136402;27;20179;-75
2022/10/24 03:16:35;;;;;;;22.53;15.57;;;14.90;99.90;;;;;;5136315;27;20242;-75
2022/10/24 03:19:01;;;;;;;20.63;15.40;;;14.90;99.90;;;;;;5117918;27;20613;-75
2022/10/24 03:21:26;;;;;;;26.00;16.37;;;15.00;99.90;;;;;;5117644;27;20466;-75
2022/10/24 03:23:52;;;;;;;21.07;15.77;;;15.00;99.90;;;;;;5117653;27;20580;-74
2022/10/24 03:26:18;;;;;;;24.37;15.57;;;15.00;99.90;;;;;;5117604;27;20203;-75
2022/10/24 03:28:43;;;;;;;23.10;16.93;;;15.00;99.90;;;;;;5136003;27;20183;-74
2022/10/24 03:31:09;;;;;;;27.47;17.20;;;15.00;99.90;;;;;;5135909;27;20187;-74
2022/10/24 03:33:34;;;;;;;24.70;16.07;;;15.00;99.90;;;;;;5136077;27;20175;-75
2022/10/24 03:36:00;;;;;;;27.80;17.33;;;15.00;99.90;;;;;;5135873;27;20187;-74
2022/10/24 03:38:26;;;;;;;30.30;18.00;;;15.00;99.90;;;;;;5135917;27;20186;-75
2022/10/24 03:40:52;;;;;;;32.03;18.37;;;15.00;99.90;;;;;;5117275;27;20566;-75
2022/10/24 03:43:18;;;;;;;28.37;17.23;;;15.00;99.90;;;;;;5135732;27;20179;-74
2022/10/24 03:45:43;;;;;;;26.33;17.77;;;15.00;99.90;;;;;;5117643;27;20663;-74
2022/10/24 03:48:10;;;;;;;27.10;18.00;;;14.90;99.90;;;;;;5135598;27;20402;-74
2022/10/24 03:50:36;;;;;;;26.40;18.70;;;14.90;99.90;;;;;;5135607;27;20578;-75
2022/10/24 03:53:01;;;;;;;26.03;17.13;;;14.90;99.90;;;;;;5135360;27;20395;-74
2022/10/24 03:55:28;;;;;;;24.87;17.60;;;14.90;99.90;;;;;;5135560;27;20205;-74
2022/10/24 03:57:54;;;;;;;23.07;16.90;;;14.80;99.90;;;;;;5135498;27;20194;-73
2022/10/24 04:00:20;;;;;;;22.80;16.67;;;14.80;99.90;;;;;;5135854;27;20471;-75
2022/10/24 04:02:46;;;;;;;25.20;17.33;;;14.80;99.90;;;;;;5117022;27;20587;-74
2022/10/24 04:05:12;;;;;;;32.20;18.90;;;14.80;99.90;;;;;;5135755;27;20683;-75
2022/10/24 04:07:38;;;;;;;24.90;18.00;;;14.80;99.90;;;;;;5116998;27;20468;-75
2022/10/24 04:10:05;;;;;;;28.83;17.33;;;14.70;99.90;;;;;;5135590;27;20427;-75
2022/10/24 04:12:31;;;;;;;24.00;16.80;;;14.70;99.90;;;;;;5135216;27;20221;-75
2022/10/24 04:14:57;;;;;;;26.43;17.40;;;14.70;99.90;;;;;;5134802;27;20443;-75
2022/10/24 04:17:22;;;;;;;28.40;19.40;;;14.70;99.90;;;;;;5116777;27;20415;-74
2022/10/24 04:19:48;;;;;;;32.83;18.83;;;14.70;99.90;;;;;;5116747;27;20631;-74
2022/10/24 04:22:16;;;;;;;31.27;18.60;;;14.60;99.90;;;;;;5135004;27;20217;-74
2022/10/24 04:24:42;;;;;;;24.03;18.13;;;14.60;99.90;;;;;;5065512;27;20226;-74
2022/10/24 04:27:08;;;;;;;29.33;19.60;;;14.70;99.90;;;;;;5116647;27;20410;-75
2022/10/24 04:29:34;;;;;;;27.83;19.30;;;14.60;99.90;;;;;;5116607;27;20221;-75
2022/10/24 04:32:00;;;;;;;23.83;17.87;;;14.60;99.90;;;;;;5134813;27;20631;-74
2022/10/24 04:34:26;;;;;;;27.30;19.70;;;14.60;99.90;;;;;;5116549;27;20800;-74
2022/10/24 04:36:52;;;;;;;27.63;18.77;;;14.50;99.90;;;;;;5134895;27;20456;-75
2022/10/24 04:39:18;;;;;;;30.37;20.57;;;14.50;99.90;;;;;;5135066;27;20183;-75
2022/10/24 04:41:44;;;;;;;26.27;19.20;;;14.50;99.90;;;;;;5134875;27;20282;-74
2022/10/24 04:44:10;;;;;;;30.93;19.10;;;14.50;99.90;;;;;;5134753;27;20426;-76
2022/10/24 04:46:51;;;;;;;29.40;19.40;;;14.40;99.90;;;;;;5115241;27;20419;-76
2022/10/24 04:49:17;;;;;;;29.37;20.00;;;14.40;99.90;;;;;;5133893;27;20198;-77
2022/10/24 04:51:43;;;;;;;29.37;20.10;;;14.40;99.90;;;;;;5134638;28;20982;-76
2022/10/24 04:54:08;;;;;;;34.13;20.40;;;14.40;99.90;;;;;;5116268;27;20191;-77
2022/10/24 04:56:34;;;;;;;29.13;18.13;;;14.40;99.90;;;;;;5134611;28;20187;-74
2022/10/24 04:59:00;;;;;;;27.73;19.90;;;14.40;99.90;;;;;;5116247;28;20651;-73
2022/10/24 05:01:26;;;;;;;30.47;18.93;;;14.40;99.90;;;;;;5134379;28;20211;-74
2022/10/24 05:03:51;;;;;;;32.80;20.20;;;14.40;99.90;;;;;;5136262;27;20431;-75
2022/10/24 05:06:17;;;;;;;30.00;19.63;;;14.50;99.90;;;;;;5120390;27;20679;-74
2022/10/24 05:08:42;;;;;;;32.20;18.77;;;14.50;99.90;;;;;;5120219;27;20231;-74
2022/10/24 05:11:11;;;;;;;29.20;20.53;;;14.50;99.90;;;;;;5119360;27;20203;-75
2022/10/24 05:13:37;;;;;;;30.23;21.17;;;14.50;99.90;;;;;;5138639;27;20181;-75
2022/10/24 05:16:05;;;;;;;27.80;19.20;;;14.50;99.90;;;;;;5138481;27;20472;-74
2022/10/24 05:18:31;;;;;;;30.30;20.93;;;14.50;99.90;;;;;;5120070;27;20407;-75
2022/10/24 05:20:58;;;;;;;31.57;22.10;;;14.50;99.90;;;;;;5138048;27;20510;-75
2022/10/24 05:23:24;;;;;;;35.60;21.73;;;14.50;99.90;;;;;;5138574;27;20458;-75
2022/10/24 05:25:49;;;;;;;38.60;24.30;;;14.50;99.90;;;;;;5138086;27;20447;-75
2022/10/24 05:28:15;;;;;;;34.17;21.33;;;14.50;99.90;;;;;;5137112;27;20440;-75
2022/10/24 05:30:44;;;;;;;30.63;20.40;;;14.50;99.90;;;;;;5119054;27;20195;-74
2022/10/24 05:33:10;;;;;;;38.27;26.40;;;14.50;99.90;;;;;;5119692;27;20175;-75
2022/10/24 05:35:36;;;;;;;35.80;24.90;;;14.50;99.90;;;;;;5119468;27;20423;-76
2022/10/24 05:38:02;;;;;;;34.30;22.90;;;14.50;99.90;;;;;;5135916;27;20429;-75
2022/10/24 05:40:27;;;;;;;36.33;22.53;;;14.50;99.90;;;;;;5136641;27;20203;-74
2022/10/24 05:42:53;;;;;;;36.70;24.10;;;14.50;99.90;;;;;;5135573;27;20583;-75
2022/10/24 05:45:19;;;;;;;34.80;23.13;;;14.40;99.90;;;;;;5134205;27;20207;-76
2022/10/24 05:47:44;;;;;;;33.90;23.10;;;14.40;99.90;;;;;;5130631;27;20179;-74
2022/10/24 05:50:10;;;;;;;34.20;22.17;;;14.40;99.90;;;;;;5125454;27;20194;-75
2022/10/24 05:52:36;;;;;;;35.47;23.13;;;14.40;99.90;;;;;;5123420;27;20171;-74
2022/10/24 05:55:04;;;;;;;35.17;21.77;;;14.40;99.90;;;;;;5107526;27;20438;-73
2022/10/24 05:57:29;;;;;;;36.13;23.43;;;14.40;99.90;;;;;;5123974;27;20168;-75
2022/10/24 05:59:55;;;;;;;34.37;22.03;;;14.40;99.90;;;;;;5126160;27;20783;-73
2022/10/24 06:02:21;;;;;;;34.10;22.40;;;14.40;99.90;;;;;;5124385;27;20230;-74
2022/10/24 06:04:47;;;;;;;34.97;22.30;;;14.40;99.90;;;;;;5136981;27;20199;-74
2022/10/24 06:07:13;;;;;;;40.00;24.20;;;14.40;99.90;;;;;;5131393;27;20183;-74
2022/10/24 06:09:41;;;;;;;35.37;23.90;;;14.40;99.90;;;;;;5134933;27;20442;-73
2022/10/24 06:12:08;;;;;;;35.63;23.13;;;14.40;99.90;;;;;;5135406;27;20832;-74
2022/10/24 06:14:35;;;;;;;35.33;23.00;;;14.50;99.90;;;;;;5121636;27;20440;-73
2022/10/24 06:17:01;;;;;;;35.10;22.70;;;14.50;99.90;;;;;;5107119;27;20401;-74
2022/10/24 06:19:27;;;;;;;36.80;24.60;;;14.50;99.90;;;;;;5127435;27;20458;-74
2022/10/24 06:21:52;;;;;;;36.27;24.43;;;14.50;99.90;;;;;;5107268;27;20563;-73
2022/10/24 06:24:18;;;;;;;36.77;25.37;;;14.60;99.90;;;;;;5126471;27;20238;-74
2022/10/24 06:26:44;;;;;;;39.57;22.10;;;14.60;99.90;;;;;;5109670;27;20553;-74
2022/10/24 06:29:10;;;;;;;33.17;23.13;;;14.70;99.90;;;;;;5123012;27;20167;-73
2022/10/24 06:31:36;;;;;;;33.80;22.87;;;14.70;99.90;;;;;;5141819;27;20179;-74
2022/10/24 06:34:02;;;;;;;31.87;22.37;;;14.70;99.90;;;;;;5109813;27;20804;-74
2022/10/24 06:36:28;;;;;;;32.57;21.90;;;14.70;99.90;;;;;;5126541;27;20432;-73
2022/10/24 06:38:54;;;;;;;36.43;24.43;;;14.80;99.90;;;;;;5124370;27;20205;-73
2022/10/24 06:41:19;;;;;;;36.63;23.17;;;14.80;99.90;;;;;;5110761;27;20749;-73
2022/10/24 06:43:45;;;;;;;35.77;22.50;;;14.90;99.90;;;;;;5112485;27;20423;-77
2022/10/24 06:46:14;;;;;;;30.43;22.10;;;14.90;99.90;;;;;;5086573;27;20298;-73
2022/10/24 06:48:39;;;;;;;30.60;21.60;;;14.90;99.90;;;;;;5077129;27;20225;-75
2022/10/24 06:51:06;;;;;;;32.20;21.80;;;15.00;99.90;;;;;;5084931;27;20454;-74
2022/10/24 06:53:32;;;;;;;34.83;23.60;;;15.10;99.90;;;;;;5085504;27;20191;-73
2022/10/24 06:56:02;;;;;;;36.83;22.67;;;15.10;99.90;;;;;;5100635;27;20891;-75
2022/10/24 06:58:33;;;;;;;31.00;22.57;;;15.20;99.90;;;;;;5092217;28;20436;-74
2022/10/24 07:00:59;;;;;;;34.37;22.30;;;15.30;99.90;;;;;;5103819;27;20510;-74
2022/10/24 07:03:25;;;;;;;34.67;21.83;;;15.40;99.90;;;;;;5110722;27;20543;-74
2022/10/24 07:05:51;;;;;;;32.40;22.53;;;15.50;99.90;;;;;;5131729;27;20305;-74
2022/10/24 07:08:16;;;;;;;34.47;22.80;;;15.60;99.90;;;;;;5115857;27;21264;-74
2022/10/24 07:10:42;;;;;;;31.47;21.07;;;15.70;99.90;;;;;;5109520;27;20806;-74
2022/10/24 07:13:08;;;;;;;31.17;21.87;;;15.80;99.90;;;;;;5124908;27;20172;-74
2022/10/24 07:15:33;;;;;;;26.03;19.63;;;15.90;99.90;;;;;;5127179;27;20201;-74
2022/10/24 07:17:59;;;;;;;30.80;21.63;;;16.00;99.90;;;;;;5125834;27;20450;-74
2022/10/24 07:20:25;;;;;;;29.20;19.67;;;16.00;99.90;;;;;;5106752;27;20666;-73
2022/10/24 07:22:50;;;;;;;29.00;21.60;;;16.00;99.90;;;;;;5134094;27;20639;-74
2022/10/24 07:25:16;;;;;;;29.90;21.30;;;16.10;99.90;;;;;;5135267;27;20235;-75
2022/10/24 07:27:41;;;;;;;30.20;20.17;;;16.10;99.90;;;;;;5134871;27;20658;-74
2022/10/24 07:30:08;;;;;;;30.47;22.17;;;16.10;99.90;;;;;;5134765;27;20207;-74
2022/10/24 07:32:34;;;;;;;31.83;21.43;;;16.10;99.90;;;;;;5116443;27;20182;-74
2022/10/24 07:34:59;;;;;;;25.80;20.27;;;16.20;99.90;;;;;;5116827;27;20505;-73
2022/10/24 07:37:25;;;;;;;27.27;20.67;;;16.20;99.90;;;;;;5125536;27;20515;-74
2022/10/24 07:39:51;;;;;;;29.70;21.20;;;16.40;99.90;;;;;;5134973;27;20191;-73
2022/10/24 07:42:17;;;;;;;28.07;21.03;;;16.70;99.90;;;;;;5133537;27;20482;-74
2022/10/24 07:44:43;;;;;;;26.83;19.70;;;17.00;99.90;;;;;;5114813;27;20212;-74
2022/10/24 07:47:10;;;;;;;28.90;18.70;;;17.40;99.90;;;;;;5134144;27;20428;-74
2022/10/24 07:49:37;;;;;;;23.27;19.37;;;17.90;99.90;;;;;;5115441;27;20455;-74
2022/10/24 07:52:03;;;;;;;27.40;18.60;;;18.50;99.90;;;;;;5131841;27;20725;-74
2022/10/24 07:54:29;;;;;;;24.43;18.37;;;19.00;99.90;;;;;;5134146;27;20965;-74
2022/10/24 07:56:54;;;;;;;24.47;16.47;;;19.40;99.90;;;;;;5133852;27;20868;-74
2022/10/24 07:59:20;;;;;;;25.73;17.83;;;19.90;99.90;;;;;;5113783;27;20182;-73
2022/10/24 08:01:45;;;;;;;20.30;16.33;;;20.40;99.90;;;;;;5114492;27;20571;-73
2022/10/24 08:04:12;;;;;;;22.40;17.37;;;20.90;99.90;;;;;;5127765;27;20222;-73
2022/10/24 08:06:39;;;;;;;20.53;16.03;;;21.30;99.90;;;;;;5108878;27;20167;-73
2022/10/24 08:09:05;;;;;;;22.67;16.83;;;21.70;99.90;;;;;;5125814;27;20447;-75
2022/10/24 08:11:31;;;;;;;24.03;17.20;;;22.00;99.90;;;;;;5107052;27;20432;-74
2022/10/24 08:13:57;;;;;;;18.00;15.90;;;22.40;99.90;;;;;;5124494;27;20240;-74
2022/10/24 08:16:24;;;;;;;23.03;15.83;;;22.70;99.90;;;;;;5106086;27;20455;-74
2022/10/24 08:18:51;;;;;;;20.17;14.67;;;23.00;99.90;;;;;;5109058;28;20475;-73
2022/10/24 08:21:18;;;;;;;21.10;15.47;;;23.20;99.90;;;;;;5125996;27;20463;-75
2022/10/24 08:23:46;;;;;;;19.83;15.17;;;23.40;99.90;;;;;;5126046;27;20437;-73
2022/10/24 08:26:14;;;;;;;23.40;16.30;;;23.60;99.90;;;;;;5127423;27;20971;-73
2022/10/24 08:28:41;;;;;;;19.77;15.20;;;23.70;99.90;;;;;;5126075;27;20431;-74
2022/10/24 08:31:10;;;;;;;21.43;16.37;;;23.70;99.90;;;;;;5100270;27;20835;-75
2022/10/24 08:33:37;;;;;;;22.77;15.97;;;23.60;99.90;;;;;;5128643;27;20476;-75
2022/10/24 08:36:10;;;;;;;21.37;16.73;;;23.50;99.90;;;;;;5130763;27;20818;-75
2022/10/24 08:38:36;;;;;;;20.63;15.40;;;23.40;99.90;;;;;;5126242;27;20457;-72
2022/10/24 08:41:01;;;;;;;20.07;16.33;;;23.10;99.90;;;;;;5133076;27;20935;-73
2022/10/24 08:43:27;;;;;;;20.03;16.57;;;22.90;99.90;;;;;;5134231;27;20542;-73
2022/10/24 08:46:00;;;;;;;17.90;14.03;;;22.70;99.90;;;;;;5133367;27;20210;-73
2022/10/24 08:48:31;;;;;;;19.57;14.83;;;22.40;99.90;;;;;;5115461;28;20183;-74
2022/10/24 08:51:16;;;;;;;17.70;15.27;;;22.20;99.90;;;;;;5133860;27;20435;-73
2022/10/24 08:53:43;;;;;;;26.87;16.37;;;21.90;99.90;;;;;;5112917;28;20446;-72
2022/10/24 08:56:11;;;;;;;21.63;16.77;;;21.70;99.90;;;;;;5114693;28;21016;-75
2022/10/24 08:58:43;;;;;;;22.73;17.33;;;21.50;99.90;;;;;;5112162;28;20436;-72
2022/10/24 09:01:25;;;;;;;20.83;16.57;;;21.40;99.90;;;;;;5130801;27;21045;-73
2022/10/24 09:03:51;;;;;;;21.00;15.77;;;21.40;99.90;;;;;;5114523;28;20442;-74
2022/10/24 09:06:23;;;;;;;23.50;16.47;;;21.30;99.90;;;;;;5113408;28;20431;-74
2022/10/24 09:08:57;;;;;;;29.00;17.20;;;21.30;99.90;;;;;;5105293;28;20483;-74
2022/10/24 09:11:47;;;;;;;20.37;15.27;;;21.30;99.90;;;;;;5131818;28;20484;-74
2022/10/24 09:14:18;;;;;;;21.73;15.67;;;21.30;99.90;;;;;;5114636;28;20435;-74
2022/10/24 09:16:55;;;;;;;23.73;17.33;;;21.30;99.90;;;;;;5130449;28;20513;-73
2022/10/24 09:19:23;;;;;;;23.47;17.90;;;21.30;99.90;;;;;;5109771;28;20975;-75
2022/10/24 09:21:52;;;;;;;22.37;17.80;;;21.30;99.90;;;;;;5130785;28;20454;-74
2022/10/24 09:24:35;;;;;;;22.27;16.77;;;21.40;99.90;;;;;;5132452;28;20834;-74
2022/10/24 09:27:04;;;;;;;24.73;16.30;;;21.40;99.90;;;;;;5114262;28;20916;-73
2022/10/24 09:29:31;;;;;;;25.53;15.97;;;21.50;99.90;;;;;;5131560;27;20861;-75
2022/10/24 09:31:59;;;;;;;20.07;13.80;;;21.60;99.90;;;;;;5130403;28;20448;-73
2022/10/24 09:34:25;;;;;;;25.53;14.13;;;21.60;99.90;;;;;;5113444;28;20443;-72
2022/10/24 09:36:51;;;;;;;20.17;14.60;;;21.70;99.90;;;;;;5110314;28;20435;-75
2022/10/24 09:39:33;;;;;;;19.33;15.03;;;21.70;99.90;;;;;;5129695;27;20183;-75
2022/10/24 09:42:00;;;;;;;18.57;13.77;;;21.70;99.90;;;;;;5110356;27;20237;-75
2022/10/24 09:44:36;;;;;;;23.83;14.63;;;21.80;99.90;;;;;;5130563;28;20438;-73
2022/10/24 09:47:04;;;;;;;21.00;16.30;;;21.80;99.90;;;;;;5106089;27;20428;-73
2022/10/24 09:49:35;;;;;;;21.67;14.77;;;21.80;99.90;;;;;;5108403;27;21317;-73
2022/10/24 09:52:20;;;;;;;18.73;14.70;;;21.90;99.90;;;;;;5109887;27;20463;-75
2022/10/24 09:55:01;;;;;;;15.63;13.87;;;22.00;99.90;;;;;;5111857;27;20455;-74
2022/10/24 09:57:37;;;;;;;22.03;12.43;;;22.10;99.90;;;;;;5124257;27;20475;-73
2022/10/24 10:00:03;;;;;;;20.63;13.70;;;22.20;99.90;;;;;;5127731;27;20443;-74
2022/10/24 10:02:33;;;;;;;14.37;11.50;;;22.30;99.90;;;;;;5127761;27;20484;-75
2022/10/24 10:05:02;;;;;;;19.43;10.23;;;22.40;99.90;;;;;;5113089;27;20486;-74
2022/10/24 10:07:40;;;;;;;14.13;10.30;;;22.40;99.90;;;;;;5131493;27;20404;-73
2022/10/24 10:10:28;;;;;;;17.43;11.40;;;22.50;99.90;;;;;;5114174;27;20476;-73
2022/10/24 10:12:59;;;;;;;291.60;147.60;;;22.60;99.90;;;;;;5114462;27;20477;-73
2022/10/24 10:15:31;;;;;;;19.63;11.60;;;22.60;99.90;;;;;;5125844;27;20904;-73
2022/10/24 10:18:01;;;;;;;14.00;11.60;;;22.70;99.90;;;;;;5105525;27;20417;-76
2022/10/24 10:20:36;;;;;;;14.00;10.13;;;22.70;99.90;;;;;;5120071;27;20439;-74
2022/10/24 10:23:25;;;;;;;11.53;9.40;;;22.70;99.90;;;;;;5127881;27;20439;-73
2022/10/24 10:26:14;;;;;;;13.37;9.30;;;22.70;99.90;;;;;;5107591;27;20575;-73
2022/10/24 10:28:58;;;;;;;16.47;8.80;;;22.80;99.90;;;;;;5081344;27;20436;-75
2022/10/24 10:31:26;;;;;;;17.77;9.23;;;22.90;99.90;;;;;;5119500;27;20865;-75
2022/10/24 10:34:13;;;;;;;12.77;9.07;;;23.00;99.90;;;;;;5121670;27;20417;-75
2022/10/24 10:37:04;;;;;;;13.33;8.10;;;23.00;99.90;;;;;;5121423;27;20405;-75
2022/10/24 10:39:51;;;;;;;13.77;8.87;;;23.10;99.90;;;;;;5105314;27;20484;-75
2022/10/24 10:42:37;;;;;;;13.33;9.50;;;23.10;99.90;;;;;;5120291;27;20515;-75
2022/10/24 10:45:09;;;;;;;12.60;9.87;;;23.10;99.90;;;;;;5106200;27;20441;-74
2022/10/24 10:48:07;;;;;;;13.67;9.20;;;23.10;99.90;;;;;;5108618;27;20428;-75
2022/10/24 10:50:48;;;;;;;13.97;9.10;;;23.10;99.90;;;;;;5092368;27;20477;-75
2022/10/24 10:53:30;;;;;;;12.80;9.20;;;23.20;99.90;;;;;;5105373;27;20441;-73
2022/10/24 10:56:01;;;;;;;11.90;9.10;;;23.20;99.90;;;;;;5103306;27;20850;-75
2022/10/24 10:58:49;;;;;;;12.83;9.23;;;23.20;99.90;;;;;;5099197;27;20430;-74
2022/10/24 11:01:28;;;;;;;16.63;8.70;;;23.20;99.90;;;;;;5118512;27;20996;-75
2022/10/24 11:04:06;;;;;;;14.33;9.30;;;23.20;99.90;;;;;;5117137;27;20527;-74
2022/10/24 11:06:49;;;;;;;12.73;8.00;;;23.20;99.90;;;;;;5104686;27;20450;-75
2022/10/24 11:09:20;;;;;;;14.10;9.23;;;23.20;99.90;;;;;;5124294;27;20842;-73
2022/10/24 11:11:56;;;;;;;11.33;8.70;;;23.30;99.90;;;;;;5128866;27;20430;-75
2022/10/24 11:14:27;;;;;;;13.70;8.93;;;23.30;99.90;;;;;;5100738;27;20430;-75
2022/10/24 11:16:59;;;;;;;11.90;9.40;;;23.30;99.90;;;;;;5122007;27;20492;-75
2022/10/24 11:19:38;;;;;;;13.67;10.47;;;23.30;99.90;;;;;;5102707;27;20459;-71
2022/10/24 11:22:09;;;;;;;13.13;8.90;;;23.30;99.90;;;;;;5127627;27;20500;-78
2022/10/24 11:24:45;;;;;;;12.13;8.50;;;23.40;99.90;;;;;;5110298;27;20532;-71
2022/10/24 11:27:48;;;;;;;13.33;9.20;;;23.40;99.90;;;;;;5119508;27;20502;-70
2022/10/24 11:30:16;;;;;;;17.20;11.43;;;23.50;99.90;;;;;;5087715;27;20445;-76
2022/10/24 11:32:53;;;;;;;14.60;9.43;;;23.50;99.90;;;;;;5129329;27;20988;-71
2022/10/24 11:35:28;;;;;;;15.60;10.63;;;23.50;99.90;;;;;;5112987;27;20693;-74
2022/10/24 11:38:19;;;;;;;20.97;11.50;;;23.50;99.90;;;;;;5114984;27;20813;-75
2022/10/24 11:40:52;;;;;;;12.87;9.10;;;23.50;99.90;;;;;;5097719;28;20467;-73
2022/10/24 11:43:26;;;;;;;14.87;8.73;;;23.50;99.90;;;;;;5118210;27;20418;-76
2022/10/24 11:46:09;;;;;;;11.23;8.87;;;23.50;99.90;;;;;;5111797;27;20500;-74
2022/10/24 11:48:46;;;;;;;13.27;9.00;;;23.50;99.90;;;;;;5126250;27;20557;-72
2022/10/24 11:51:25;;;;;;;11.60;9.00;;;23.40;99.90;;;;;;5095492;28;20447;-76
2022/10/24 11:54:04;;;;;;;13.93;8.93;;;23.40;99.90;;;;;;5117850;27;20432;-73
2022/10/24 11:57:02;;;;;;;12.50;9.53;;;23.40;99.90;;;;;;5121595;27;20481;-74
2022/10/24 11:59:29;;;;;;;9.30;8.20;;;23.40;99.90;;;;;;5089326;27;20916;-72
2022/10/24 12:01:55;;;;;;;13.77;8.83;;;23.30;99.90;;;;;;5132986;27;20477;-74
2022/10/24 12:04:39;;;;;;;12.90;8.70;;;23.30;99.90;;;;;;5102397;27;21222;-74
2022/10/24 12:07:23;;;;;;;13.67;8.60;;;23.30;99.90;;;;;;5119930;27;20189;-72
2022/10/24 12:10:10;;;;;;;12.80;10.43;;;23.30;99.90;;;;;;5097350;27;21194;-73
2022/10/24 12:12:47;;;;;;;10.83;8.60;;;23.20;99.90;;;;;;5115030;27;21015;-72
2022/10/24 12:16:02;;;;;;;15.17;9.23;;;23.20;99.90;;;;;;5090722;28;20757;-71
2022/10/24 12:18:34;;;;;;;10.73;8.33;;;23.30;99.90;;;;;;5112784;27;20589;-72
2022/10/24 12:21:07;;;;;;;9.47;8.57;;;23.20;99.90;;;;;;5118225;27;20450;-72
2022/10/24 12:23:34;;;;;;;14.93;8.97;;;23.30;99.90;;;;;;5116799;27;20571;-75
2022/10/24 12:26:17;;;;;;;10.77;8.00;;;23.30;99.90;;;;;;5117806;27;20571;-72
2022/10/24 12:29:03;;;;;;;12.97;8.13;;;23.30;99.90;;;;;;5115080;27;20439;-74
2022/10/24 12:31:34;;;;;;;10.73;8.00;;;23.30;99.90;;;;;;5103646;27;20522;-75
2022/10/24 12:34:15;;;;;;;11.47;8.03;;;23.30;99.90;;;;;;5119190;27;20930;-72
2022/10/24 12:37:11;;;;;;;11.63;8.20;;;23.30;99.90;;;;;;5100352;27;20508;-73
2022/10/24 12:39:42;;;;;;;9.97;8.30;;;23.30;99.90;;;;;;5100343;28;20449;-72
2022/10/24 12:42:23;;;;;;;11.00;8.20;;;23.40;99.90;;;;;;5100632;27;20460;-72
2022/10/24 12:45:04;;;;;;;15.30;6.97;;;23.40;99.90;;;;;;5114152;28;20451;-74